Time;durP1;ratioP1;P1;durP2;ratioP2;P2;SDS_P1;SDS_P2;PMS_P1;PMS_P2;Temp;Humidity;BMP_temperature;BMP_pressure;BME280_temperature;BME280_humidity;BME280_pressure;Samples;Min_cycle;Max_cycle;Signal;HPM_P1;HPM_P2
2022/10/09 00:01:53;;;;;;;15.68;8.27;;;;;;;9.80;100.00;98012.34;5097366;27;20026;-81
2022/10/09 00:04:19;;;;;;;14.98;8.43;;;;;;;9.84;100.00;98029.09;5114471;27;20023;-80
2022/10/09 00:06:44;;;;;;;16.83;9.48;;;;;;;9.95;100.00;98034.72;5097198;27;20034;-80
2022/10/09 00:09:10;;;;;;;18.30;9.07;;;;;;;9.85;100.00;98014.75;5132687;27;20110;-81
2022/10/09 00:11:35;;;;;;;16.25;9.18;;;;;;;9.79;100.00;98023.09;5097245;27;20023;-81
2022/10/09 00:14:01;;;;;;;15.52;9.38;;;;;;;9.75;100.00;98022.38;5097342;27;20027;-81
2022/10/09 00:16:28;;;;;;;14.25;8.25;;;;;;;9.73;100.00;98020.72;5114133;27;20038;-80
2022/10/09 00:18:53;;;;;;;13.45;8.73;;;;;;;9.77;100.00;98025.84;5114768;27;20027;-81
2022/10/09 00:21:27;;;;;;;15.00;8.45;;;;;;;9.66;100.00;98028.19;5097703;27;20060;-81
2022/10/09 00:23:54;;;;;;;20.95;8.35;;;;;;;9.63;100.00;98020.34;5114048;27;20463;-81
2022/10/09 00:26:20;;;;;;;14.98;8.10;;;;;;;9.56;100.00;98026.06;5113873;28;20542;-81
2022/10/09 00:28:46;;;;;;;15.50;7.80;;;;;;;9.51;100.00;98009.41;5096715;28;20063;-80
2022/10/09 00:31:12;;;;;;;14.65;8.15;;;;;;;9.50;100.00;98023.72;5130687;27;20129;-81
2022/10/09 00:33:38;;;;;;;11.45;7.25;;;;;;;9.38;100.00;98009.19;5130927;27;20115;-80
2022/10/09 00:36:06;;;;;;;18.17;8.10;;;;;;;9.36;100.00;98026.19;5113606;28;20510;-80
2022/10/09 00:38:32;;;;;;;13.82;7.97;;;;;;;9.37;100.00;98028.78;5097497;28;20031;-81
2022/10/09 00:40:57;;;;;;;12.63;7.65;;;;;;;9.31;100.00;98023.75;5096596;28;20030;-81
2022/10/09 00:43:59;;;;;;;12.05;7.60;;;;;;;9.48;100.00;98028.25;5132152;28;20543;-81
2022/10/09 00:46:45;;;;;;;13.60;7.50;;;;;;;9.47;100.00;98018.53;5074242;28;20126;-80
2022/10/09 00:49:27;;;;;;;14.48;7.80;;;;;;;9.53;100.00;98023.56;5113740;28;20106;-80
2022/10/09 00:51:54;;;;;;;21.48;8.65;;;;;;;9.42;100.00;98012.53;5096524;28;20019;-80
2022/10/09 00:54:22;;;;;;;14.02;7.93;;;;;;;9.41;100.00;98013.50;5113911;28;20478;-80
2022/10/09 00:56:48;;;;;;;16.55;8.75;;;;;;;9.50;100.00;98034.41;5116213;27;20044;-81
2022/10/09 00:59:13;;;;;;;13.15;7.93;;;;;;;9.45;100.00;98021.25;5118234;27;20034;-80
2022/10/09 01:01:40;;;;;;;12.48;7.90;;;;;;;9.42;100.00;98017.88;5117845;27;20019;-81
2022/10/09 01:04:05;;;;;;;14.07;8.43;;;;;;;9.47;100.00;98024.75;5117737;27;20059;-81
2022/10/09 01:06:59;;;;;;;14.65;8.88;;;;;;;9.34;100.00;98023.59;5100721;27;20127;-81
2022/10/09 01:10:03;;;;;;;17.58;9.07;;;;;;;9.38;100.00;98033.22;5136371;27;20027;-80
2022/10/09 01:12:36;;;;;;;14.88;9.25;;;;;;;9.29;100.00;98025.63;5104638;27;20103;-81
2022/10/09 01:15:27;;;;;;;15.27;8.48;;;;;;;9.34;100.00;98038.75;5117117;27;20031;-80
2022/10/09 01:17:58;;;;;;;15.15;8.35;;;;;;;9.29;100.00;98020.28;5117505;27;20117;-80
2022/10/09 01:20:29;;;;;;;16.52;8.90;;;;;;;9.31;100.00;98033.56;5112998;27;20475;-80
2022/10/09 01:23:14;;;;;;;12.93;8.50;;;;;;;9.27;100.00;98024.84;5116837;27;20398;-79
2022/10/09 01:25:58;;;;;;;15.65;9.18;;;;;;;9.28;100.00;98029.25;5117144;27;20142;-80
2022/10/09 01:28:29;;;;;;;17.98;8.55;;;;;;;9.27;100.00;98033.72;5135841;27;20030;-80
2022/10/09 01:30:59;;;;;;;18.98;8.88;;;;;;;9.21;100.00;98035.81;5117245;27;20047;-80
2022/10/09 01:33:27;;;;;;;17.48;8.98;;;;;;;9.25;100.00;98035.59;5134139;27;20016;-80
2022/10/09 01:35:52;;;;;;;19.67;9.15;;;;;;;9.29;100.00;98036.28;5117351;27;20042;-81
2022/10/09 01:38:19;;;;;;;13.50;8.73;;;;;;;9.29;100.00;98041.63;5100021;27;20467;-80
2022/10/09 01:40:45;;;;;;;16.75;9.10;;;;;;;9.15;100.00;98028.13;5117314;27;20490;-81
2022/10/09 01:43:10;;;;;;;18.23;9.25;;;;;;;9.10;100.00;98025.69;5117058;27;20034;-80
2022/10/09 01:45:41;;;;;;;27.23;12.02;;;;;;;9.16;100.00;98030.72;5116860;27;20076;-80
2022/10/09 01:48:11;;;;;;;14.85;9.05;;;;;;;9.15;100.00;98034.31;5099839;27;20030;-80
2022/10/09 01:50:40;;;;;;;17.10;9.68;;;;;;;9.05;100.00;98019.69;5100125;27;20034;-80
2022/10/09 01:53:09;;;;;;;17.17;8.85;;;;;;;9.07;100.00;98036.50;5117095;27;20041;-80
2022/10/09 01:55:57;;;;;;;25.02;8.93;;;;;;;8.95;100.00;98014.88;5099759;27;20030;-80
2022/10/09 01:58:45;;;;;;;15.05;8.75;;;;;;;8.99;100.00;98035.97;5116748;27;20030;-80
2022/10/09 02:01:13;;;;;;;16.02;8.15;;;;;;;8.94;100.00;98039.81;5116699;27;20035;-80
2022/10/09 02:03:40;;;;;;;15.57;8.75;;;;;;;8.90;100.00;98048.91;5117205;27;20498;-80
2022/10/09 02:06:07;;;;;;;19.05;9.00;;;;;;;8.80;100.00;98048.47;5116768;27;20019;-80
2022/10/09 02:08:34;;;;;;;18.52;9.35;;;;;;;8.68;100.00;98049.03;5132880;27;20109;-80
2022/10/09 02:11:00;;;;;;;15.80;9.07;;;;;;;8.62;100.00;98065.31;5116462;27;20049;-82
2022/10/09 02:13:26;;;;;;;16.50;8.85;;;;;;;8.67;100.00;98072.16;5116378;27;20023;-80
2022/10/09 02:15:57;;;;;;;14.30;9.23;;;;;;;8.73;100.00;98068.38;5098822;27;20027;-80
2022/10/09 02:18:48;;;;;;;16.23;8.57;;;;;;;8.79;100.00;98070.75;5100274;27;20056;-79
2022/10/09 02:21:25;;;;;;;14.13;8.88;;;;;;;8.76;100.00;98057.56;5116819;27;20038;-80
2022/10/09 02:23:52;;;;;;;17.20;9.05;;;;;;;8.77;100.00;98064.59;5116435;27;20022;-80
2022/10/09 02:26:18;;;;;;;16.17;9.43;;;;;;;8.82;100.00;98061.75;5116218;27;20026;-79
2022/10/09 02:28:44;;;;;;;17.33;8.90;;;;;;;8.79;100.00;98064.53;5116246;27;20027;-81
2022/10/09 02:31:21;;;;;;;57.80;32.55;;;;;;;8.89;100.00;98079.19;5116152;27;20142;-80
2022/10/09 02:34:06;;;;;;;36.20;22.20;;;;;;;8.87;100.00;98068.59;5130825;27;20380;-80
2022/10/09 02:36:32;;;;;;;41.10;24.85;;;;;;;8.80;100.00;98069.78;5116072;27;20019;-80
2022/10/09 02:38:58;;;;;;;22.23;13.90;;;;;;;8.80;100.00;98072.47;5098944;27;20046;-80
2022/10/09 02:41:25;;;;;;;17.15;9.20;;;;;;;8.83;100.00;98071.47;5098891;27;20030;-79
2022/10/09 02:43:50;;;;;;;14.52;9.23;;;;;;;8.69;100.00;98061.44;5115918;27;20027;-80
2022/10/09 02:46:16;;;;;;;13.00;8.13;;;;;;;8.76;100.00;98081.56;5116307;27;20023;-81
2022/10/09 02:48:42;;;;;;;14.10;8.20;;;;;;;8.77;100.00;98074.44;5115766;27;21416;-80
2022/10/09 02:51:08;;;;;;;17.70;8.52;;;;;;;8.75;100.00;98074.50;5115867;27;20034;-80
2022/10/09 02:53:34;;;;;;;15.50;8.68;;;;;;;8.68;100.00;98062.38;5098587;27;20046;-80
2022/10/09 02:55:59;;;;;;;14.98;8.50;;;;;;;8.71;100.00;98072.88;5115570;27;20062;-80
2022/10/09 02:58:25;;;;;;;15.80;8.18;;;;;;;8.59;100.00;98073.44;5098574;27;20027;-80
2022/10/09 03:00:52;;;;;;;12.27;8.48;;;;;;;8.48;100.00;98073.97;5115709;27;20023;-80
2022/10/09 03:03:20;;;;;;;16.35;9.10;;;;;;;8.43;100.00;98075.94;5115833;27;20041;-81
2022/10/09 03:05:45;;;;;;;15.25;8.93;;;;;;;8.38;100.00;98077.09;5115564;27;20402;-80
2022/10/09 03:08:11;;;;;;;17.85;9.25;;;;;;;8.32;100.00;98086.22;5115319;27;20027;-80
2022/10/09 03:10:38;;;;;;;17.25;10.15;;;;;;;8.28;100.00;98075.75;5133789;27;20463;-79
2022/10/09 03:13:04;;;;;;;19.85;10.95;;;;;;;8.26;100.00;98072.28;5115369;27;20075;-80
2022/10/09 03:15:33;;;;;;;19.65;10.23;;;;;;;8.19;100.00;98061.88;5098290;27;20027;-79
2022/10/09 03:17:59;;;;;;;17.92;10.18;;;;;;;8.16;100.00;98067.34;5115489;27;20105;-80
2022/10/09 03:20:24;;;;;;;18.33;11.10;;;;;;;8.24;100.00;98082.16;5114456;27;20651;-79
2022/10/09 03:22:50;;;;;;;20.25;10.43;;;;;;;8.11;100.00;98063.16;5098105;27;20082;-80
2022/10/09 03:25:16;;;;;;;20.25;10.73;;;;;;;8.02;100.00;98067.09;5133476;27;20052;-80
2022/10/09 03:27:41;;;;;;;18.17;10.82;;;;;;;8.01;100.00;98070.69;5097970;27;20056;-81
2022/10/09 03:30:07;;;;;;;29.83;11.65;;;;;;;8.08;100.00;98089.94;5114669;27;20043;-79
2022/10/09 03:32:33;;;;;;;31.00;10.52;;;;;;;8.08;100.00;98088.16;5115110;27;20027;-79
2022/10/09 03:34:58;;;;;;;21.52;9.82;;;;;;;8.18;100.00;98102.78;5114841;27;20064;-79
2022/10/09 03:37:24;;;;;;;18.50;9.40;;;;;;;8.10;100.00;98090.72;5098029;27;20026;-80
2022/10/09 03:39:50;;;;;;;18.52;9.45;;;;;;;8.06;100.00;98087.34;5115299;27;20019;-80
2022/10/09 03:42:22;;;;;;;20.95;10.02;;;;;;;8.11;100.00;98095.13;5091682;28;20385;-81
2022/10/09 03:44:48;;;;;;;16.45;8.90;;;;;;;8.15;100.00;98097.59;5093721;28;20046;-80
2022/10/09 03:47:13;;;;;;;17.38;9.55;;;;;;;8.10;100.00;98091.59;5089006;28;20539;-80
2022/10/09 03:49:39;;;;;;;19.17;9.70;;;;;;;8.15;100.00;98092.25;5070598;28;20115;-80
2022/10/09 03:52:04;;;;;;;17.33;8.98;;;;;;;8.21;100.00;98092.94;5087634;28;20034;-79
2022/10/09 03:54:30;;;;;;;22.30;9.25;;;;;;;8.18;100.00;98092.13;5082539;28;20055;-80
2022/10/09 03:56:55;;;;;;;19.00;10.20;;;;;;;8.16;100.00;98091.34;5100684;28;20025;-80
2022/10/09 03:59:21;;;;;;;25.95;11.55;;;;;;;8.15;100.00;98097.59;5106705;28;20027;-80
2022/10/09 04:01:46;;;;;;;19.98;11.43;;;;;;;8.13;100.00;98093.25;5108928;28;20110;-79
2022/10/09 04:04:12;;;;;;;20.02;12.27;;;;;;;8.03;100.00;98097.25;5093635;28;20089;-80
2022/10/09 04:06:37;;;;;;;19.08;11.68;;;;;;;7.99;100.00;98107.19;5095923;28;20035;-78
2022/10/09 04:09:03;;;;;;;23.70;12.45;;;;;;;7.95;100.00;98107.38;5104303;28;20035;-80
2022/10/09 04:11:28;;;;;;;20.17;11.80;;;;;;;7.94;100.00;98116.28;5070313;28;20032;-81
2022/10/09 04:13:54;;;;;;;23.98;12.57;;;;;;;7.90;100.00;98117.38;5081797;28;20419;-81
2022/10/09 04:16:19;;;;;;;25.90;13.15;;;;;;;7.92;100.00;98104.84;5108094;28;20399;-80
2022/10/09 04:18:46;;;;;;;23.65;11.82;;;;;;;7.92;100.00;98111.03;5090784;28;20054;-80
2022/10/09 04:21:12;;;;;;;26.75;12.00;;;;;;;7.87;100.00;98110.38;5109533;28;20039;-80
2022/10/09 04:23:38;;;;;;;22.70;12.02;;;;;;;7.95;100.00;98115.38;5099880;28;20032;-79
2022/10/09 04:26:04;;;;;;;22.33;11.88;;;;;;;7.95;100.00;98115.38;5086973;28;20437;-80
2022/10/09 04:28:30;;;;;;;20.80;11.85;;;;;;;7.84;100.00;98106.97;5077985;28;20047;-80
2022/10/09 04:30:56;;;;;;;23.27;12.40;;;;;;;7.87;100.00;98117.50;5073219;28;20031;-79
2022/10/09 04:33:22;;;;;;;28.02;12.65;;;;;;;8.02;100.00;98149.69;5075309;28;20028;-80
2022/10/09 04:35:50;;;;;;;23.00;12.95;;;;;;;7.99;100.00;98140.94;5069672;28;20492;-79
2022/10/09 04:38:16;;;;;;;21.83;12.32;;;;;;;8.00;100.00;98132.88;5092523;28;20660;-80
2022/10/09 04:40:41;;;;;;;24.85;13.18;;;;;;;7.96;100.00;98117.97;5081670;28;20548;-79
2022/10/09 04:43:07;;;;;;;27.73;12.93;;;;;;;8.04;100.00;98129.16;5086446;28;20032;-79
2022/10/09 04:45:32;;;;;;;26.88;14.27;;;;;;;7.94;100.00;98102.97;5069831;28;20105;-80
2022/10/09 04:47:58;;;;;;;24.88;13.50;;;;;;;7.93;100.00;98107.47;5097580;28;20388;-81
2022/10/09 04:50:24;;;;;;;29.55;14.57;;;;;;;7.88;100.00;98104.09;5078751;28;20137;-80
2022/10/09 04:52:49;;;;;;;28.60;13.15;;;;;;;7.87;100.00;98106.84;5078336;28;20024;-80
2022/10/09 04:55:15;;;;;;;26.98;14.30;;;;;;;7.84;100.00;98097.19;5076414;28;20085;-81
2022/10/09 04:57:40;;;;;;;31.77;17.73;;;;;;;7.81;100.00;98107.97;5094073;28;20407;-80
2022/10/09 05:00:07;;;;;;;34.97;19.08;;;;;;;7.83;100.00;98113.22;5074968;28;20067;-82
2022/10/09 05:02:32;;;;;;;40.30;20.25;;;;;;;7.78;100.00;98102.78;5085535;28;20032;-81
2022/10/09 05:04:57;;;;;;;45.90;22.27;;;;;;;7.89;100.00;98102.31;5074676;28;20081;-80
2022/10/09 05:07:23;;;;;;;50.17;23.58;;;;;;;8.11;100.00;98117.31;5093185;28;20024;-81
2022/10/09 05:09:49;;;;;;;48.90;23.90;;;;;;;8.18;100.00;98109.94;5093327;28;20020;-80
2022/10/09 05:12:15;;;;;;;68.70;28.58;;;;;;;8.28;100.00;98103.28;5086553;28;20024;-81
2022/10/09 05:14:40;;;;;;;80.10;29.60;;;;;;;8.32;100.00;98096.03;5087909;28;20024;-81
2022/10/09 05:17:06;;;;;;;63.35;23.35;;;;;;;8.55;100.00;98122.53;5062679;28;20028;-80
2022/10/09 05:19:32;;;;;;;31.45;17.55;;;;;;;8.51;100.00;98096.94;5079749;28;20029;-80
2022/10/09 05:21:59;;;;;;;31.02;16.40;;;;;;;8.58;100.00;98111.75;5082458;28;20039;-76
2022/10/09 05:24:25;;;;;;;40.83;17.30;;;;;;;8.62;100.00;98107.97;5080207;28;20473;-75
2022/10/09 05:26:50;;;;;;;30.60;17.05;;;;;;;8.69;100.00;98098.78;5066468;28;20032;-75
2022/10/09 05:29:16;;;;;;;41.25;17.58;;;;;;;8.81;100.00;98114.22;5072122;28;20097;-74
2022/10/09 05:31:42;;;;;;;32.38;17.13;;;;;;;9.13;100.00;98123.41;5072332;28;20020;-75
2022/10/09 05:34:08;;;;;;;35.88;18.20;;;;;;;9.44;100.00;98139.69;5091698;28;20024;-74
2022/10/09 05:36:34;;;;;;;49.45;21.00;;;;;;;9.93;100.00;98150.66;5066508;28;20032;-76
2022/10/09 05:39:00;;;;;;;49.35;22.27;;;;;;;10.50;100.00;98158.41;5074752;28;20024;-74
2022/10/09 05:41:27;;;;;;;46.05;23.95;;;;;;;11.14;100.00;98155.84;5070040;28;20044;-75
2022/10/09 05:43:53;;;;;;;41.70;21.73;;;;;;;11.40;100.00;98130.34;5085352;28;20028;-75
2022/10/09 05:46:23;;;;;;;36.53;18.98;;;;;;;12.04;100.00;98151.69;5057559;28;20039;-75
2022/10/09 05:49:00;;;;;;;36.47;18.33;;;;;;;12.95;94.00;98143.50;5059903;28;20090;-76
2022/10/09 05:51:30;;;;;;;43.90;21.15;;;;;;;13.71;91.23;98127.88;5074817;28;20410;-75
2022/10/09 05:53:57;;;;;;;38.20;19.02;;;;;;;14.88;83.64;98118.13;5071354;28;20056;-75
2022/10/09 05:56:28;;;;;;;27.90;15.10;;;;;;;16.54;75.71;98083.28;5054362;28;20028;-75
2022/10/09 05:58:57;;;;;;;36.85;16.75;;;;;;;17.80;67.77;98030.72;5069644;28;20039;-75
2022/10/09 06:01:25;;;;;;;32.53;18.13;;;;;;;18.87;61.48;97974.47;5075890;28;20043;-76
2022/10/09 06:03:53;;;;;;;35.38;19.27;;;;;;;19.23;59.72;97938.63;5059850;28;20020;-76
2022/10/09 06:06:20;;;;;;;44.03;18.45;;;;;;;19.45;58.79;97918.56;5064048;28;20033;-76
2022/10/09 06:08:45;;;;;;;39.30;16.90;;;;;;;19.88;56.66;97891.88;5087746;28;20040;-74
2022/10/09 06:11:13;;;;;;;36.25;18.25;;;;;;;19.95;56.43;97890.28;5063449;28;20093;-75
2022/10/09 06:13:39;;;;;;;39.85;18.48;;;;;;;20.52;55.17;97883.03;5069740;28;20480;-75
2022/10/09 06:16:05;;;;;;;38.42;18.80;;;;;;;20.70;54.15;97870.38;5062280;28;20115;-75
2022/10/09 06:18:31;;;;;;;46.72;22.80;;;;;;;20.95;53.31;97853.34;5062355;28;20120;-75
2022/10/09 06:20:58;;;;;;;44.30;23.60;;;;;;;21.00;52.99;97871.94;5085731;28;20030;-75
2022/10/09 06:23:24;;;;;;;34.08;21.50;;;;;;;20.74;53.95;97858.19;5082460;28;20507;-75
2022/10/09 06:25:52;;;;;;;39.47;21.08;;;;;;;20.26;55.42;97852.94;5068449;28;20127;-77
2022/10/09 06:28:17;;;;;;;36.97;19.95;;;;;;;20.33;55.30;97862.19;5057769;28;20033;-76
2022/10/09 06:30:43;;;;;;;41.85;18.23;;;;;;;20.06;55.90;97834.94;5083353;28;20028;-75
2022/10/09 06:33:09;;;;;;;35.88;18.08;;;;;;;20.25;55.44;97837.59;5061491;28;20071;-76
2022/10/09 06:35:34;;;;;;;34.47;19.00;;;;;;;20.41;55.47;97847.88;5069653;28;20119;-75
2022/10/09 06:38:00;;;;;;;34.05;17.58;;;;;;;20.85;54.60;97848.97;5065638;28;20034;-75
2022/10/09 06:40:25;;;;;;;33.33;17.17;;;;;;;21.94;51.75;97855.06;5071736;28;20097;-75
2022/10/09 06:42:51;;;;;;;26.52;15.90;;;;;;;21.92;51.49;97837.19;5075796;28;20032;-75
2022/10/09 06:45:16;;;;;;;27.52;16.20;;;;;;;22.80;49.37;97834.16;5073562;28;20034;-76
2022/10/09 06:47:42;;;;;;;30.92;16.23;;;;;;;22.88;49.15;97817.84;5078296;28;20024;-75
2022/10/09 06:50:08;;;;;;;26.25;14.38;;;;;;;23.19;49.12;97832.56;5070296;28;20028;-76
2022/10/09 06:52:33;;;;;;;25.77;13.65;;;;;;;22.96;49.25;97817.00;5068230;28;20039;-75
2022/10/09 06:54:59;;;;;;;24.48;13.80;;;;;;;22.51;50.73;97828.19;5065126;28;20463;-75
2022/10/09 06:57:24;;;;;;;23.48;13.60;;;;;;;21.59;52.68;97819.69;5072122;28;20111;-76
2022/10/09 06:59:50;;;;;;;26.98;12.95;;;;;;;21.35;54.33;97833.09;5070498;28;20052;-76
2022/10/09 07:02:16;;;;;;;20.15;12.93;;;;;;;21.10;54.78;97823.81;5061499;28;20036;-77
2022/10/09 07:04:42;;;;;;;21.20;13.13;;;;;;;20.96;55.48;97822.41;5086720;28;20024;-77
2022/10/09 07:07:07;;;;;;;18.52;11.57;;;;;;;21.55;54.98;97834.63;5064179;28;21305;-77
2022/10/09 07:09:33;;;;;;;19.55;11.43;;;;;;;22.56;52.48;97828.56;5067044;28;20064;-76
2022/10/09 07:11:59;;;;;;;17.98;11.02;;;;;;;22.40;52.67;97820.28;5083768;28;20084;-77
2022/10/09 07:14:24;;;;;;;22.58;11.63;;;;;;;22.77;52.10;97817.25;5064238;28;20392;-75
2022/10/09 07:16:50;;;;;;;20.25;11.52;;;;;;;22.52;52.66;97813.53;5065645;28;20493;-76
2022/10/09 07:19:17;;;;;;;19.75;11.25;;;;;;;23.00;52.06;97830.16;5074322;28;20043;-77
2022/10/09 07:21:44;;;;;;;16.70;11.18;;;;;;;23.04;51.31;97820.59;5064097;28;20055;-75
2022/10/09 07:24:11;;;;;;;18.30;11.57;;;;;;;22.84;51.87;97802.81;5063586;28;20439;-75
2022/10/09 07:26:39;;;;;;;23.27;12.25;;;;;;;23.36;51.74;97824.44;5055777;28;20129;-75
2022/10/09 07:29:07;;;;;;;18.52;11.68;;;;;;;23.86;50.68;97830.66;5084425;28;20486;-76
2022/10/09 07:31:32;;;;;;;15.80;11.57;;;;;;;24.32;49.12;97817.31;5071704;28;20024;-76
2022/10/09 07:33:58;;;;;;;19.27;12.25;;;;;;;23.15;50.96;97803.06;5063454;28;20031;-76
2022/10/09 07:36:25;;;;;;;17.58;11.50;;;;;;;22.91;52.31;97809.31;5056176;28;20125;-75
2022/10/09 07:38:53;;;;;;;18.65;10.25;;;;;;;24.14;49.83;97829.31;5072813;28;20476;-77
2022/10/09 07:41:20;;;;;;;23.83;13.30;;;;;;;24.58;48.46;97818.75;5078051;28;20048;-79
2022/10/09 07:43:46;;;;;;;21.33;10.55;;;;;;;24.75;48.72;97822.31;5066609;28;20035;-76
2022/10/09 07:46:16;;;;;;;16.52;10.98;;;;;;;25.48;46.54;97822.81;5066929;28;20032;-76
2022/10/09 07:48:42;;;;;;;15.25;10.00;;;;;;;26.07;45.51;97818.44;5080675;28;20020;-77
2022/10/09 07:51:13;;;;;;;19.08;11.48;;;;;;;27.29;43.31;97820.66;5066758;28;20165;-76
2022/10/09 07:53:39;;;;;;;18.27;10.90;;;;;;;27.13;42.68;97797.03;5081487;28;20464;-77
2022/10/09 07:56:05;;;;;;;16.95;10.80;;;;;;;27.18;42.44;97799.19;5066385;28;20165;-78
2022/10/09 07:58:31;;;;;;;16.50;10.60;;;;;;;27.65;41.48;97798.69;5084321;28;20024;-78
2022/10/09 08:01:03;;;;;;;18.13;12.02;;;;;;;28.05;40.54;97792.56;5070143;28;20489;-76
2022/10/09 08:03:29;;;;;;;16.98;11.70;;;;;;;28.46;40.22;97801.75;5061719;28;20436;-78
2022/10/09 08:05:55;;;;;;;19.75;12.40;;;;;;;28.30;40.26;97792.97;5058166;28;20021;-78
2022/10/09 08:08:21;;;;;;;21.88;13.85;;;;;;;28.19;40.58;97783.34;5073687;28;20025;-77
2022/10/09 08:10:46;;;;;;;19.95;13.57;;;;;;;28.64;39.60;97784.69;5067219;28;20107;-77
2022/10/09 08:13:12;;;;;;;24.00;13.48;;;;;;;27.71;40.76;97770.41;5061712;28;20522;-78
2022/10/09 08:15:41;;;;;;;17.73;12.98;;;;;;;27.02;41.67;97770.06;5066637;28;20028;-77
2022/10/09 08:18:10;;;;;;;21.85;13.60;;;;;;;26.62;42.76;97774.13;5061102;28;20082;-78
2022/10/09 08:20:36;;;;;;;22.35;12.20;;;;;;;27.26;41.47;97764.19;5063640;28;20028;-76
2022/10/09 08:23:02;;;;;;;18.75;13.50;;;;;;;26.94;42.10;97772.91;5078553;28;20028;-76
2022/10/09 08:25:28;;;;;;;18.98;13.30;;;;;;;26.88;42.26;97773.69;5067143;28;20533;-77
2022/10/09 08:27:55;;;;;;;19.60;12.82;;;;;;;25.10;45.31;97763.50;5066136;28;20054;-75
2022/10/09 08:30:20;;;;;;;17.75;12.50;;;;;;;26.15;43.56;97781.81;5067357;28;20028;-77
2022/10/09 08:32:46;;;;;;;23.98;12.32;;;;;;;27.07;42.59;97781.28;5062829;28;20085;-77
2022/10/09 08:35:11;;;;;;;21.88;13.18;;;;;;;28.28;40.26;97784.91;5067812;28;20034;-76
2022/10/09 08:37:37;;;;;;;19.40;12.63;;;;;;;29.15;38.58;97779.69;5059374;28;20455;-76
2022/10/09 08:40:04;;;;;;;23.17;15.15;;;;;;;29.78;37.61;97785.84;5064080;28;20020;-76
2022/10/09 08:42:41;;;;;;;20.65;12.82;;;;;;;30.12;36.54;97766.34;5082362;28;20066;-77
2022/10/09 08:45:14;;;;;;;20.42;12.55;;;;;;;30.17;36.47;97771.25;5056263;28;20028;-76
2022/10/09 08:47:44;;;;;;;20.30;12.40;;;;;;;28.66;38.73;97743.25;5081023;28;20089;-77
2022/10/09 08:50:21;;;;;;;19.05;12.85;;;;;;;28.25;38.72;97741.25;5058666;28;20399;-77
2022/10/09 08:52:50;;;;;;;24.10;13.57;;;;;;;29.56;37.89;97760.34;5073523;28;20058;-76
2022/10/09 08:55:18;;;;;;;16.45;11.73;;;;;;;29.47;37.99;97748.63;5090278;28;20506;-77
2022/10/09 08:57:46;;;;;;;20.83;13.00;;;;;;;30.07;37.03;97741.31;5083812;28;20024;-78
2022/10/09 09:00:16;;;;;;;14.30;8.75;;;;;;;30.57;36.17;97751.69;5075377;28;20028;-78
2022/10/09 09:02:51;;;;;;;26.13;10.73;;;;;;;30.45;36.74;97753.41;5075859;28;20024;-77
2022/10/09 09:05:32;;;;;;;14.60;9.88;;;;;;;30.42;36.45;97742.78;5072201;28;20032;-78
2022/10/09 09:08:03;;;;;;;13.60;7.35;;;;;;;31.35;34.49;97746.09;5080942;28;20020;-76
2022/10/09 09:10:37;;;;;;;10.98;6.15;;;;;;;31.09;34.27;97724.94;5093653;28;20062;-77
2022/10/09 09:13:35;;;;;;;12.48;6.78;;;;;;;31.40;34.16;97732.44;5083856;28;20052;-78
2022/10/09 09:16:26;;;;;;;10.95;6.63;;;;;;;31.71;33.96;97732.47;5083133;28;20059;-77
2022/10/09 09:19:18;;;;;;;8.30;5.78;;;;;;;32.70;33.16;97744.38;5076048;28;20025;-77
2022/10/09 09:21:48;;;;;;;10.00;6.27;;;;;;;34.13;31.29;97739.88;5072152;28;20040;-77
2022/10/09 09:24:19;;;;;;;9.98;6.25;;;;;;;33.28;31.97;97718.97;5082804;28;20024;-77
2022/10/09 09:26:49;;;;;;;8.57;5.07;;;;;;;33.77;31.05;97712.28;5080050;28;20043;-77
2022/10/09 09:29:20;;;;;;;7.25;5.00;;;;;;;31.85;33.68;97702.75;5073974;28;20139;-77
2022/10/09 09:31:47;;;;;;;9.20;5.73;;;;;;;32.29;32.94;97704.53;5068834;28;20067;-77
2022/10/09 09:34:23;;;;;;;9.95;7.13;;;;;;;32.97;32.37;97699.72;5069016;28;20036;-77
2022/10/09 09:36:57;;;;;;;15.95;8.48;;;;;;;33.12;31.81;97708.50;5061843;28;20504;-76
2022/10/09 09:39:26;;;;;;;11.73;6.80;;;;;;;33.91;31.06;97721.22;5060606;28;20047;-78
2022/10/09 09:41:52;;;;;;;9.60;6.60;;;;;;;33.47;30.53;97697.56;5058324;28;20051;-78
2022/10/09 09:44:18;;;;;;;9.02;5.82;;;;;;;32.42;31.57;97694.16;5068553;28;20230;-78
2022/10/09 09:46:45;;;;;;;7.07;5.28;;;;;;;32.44;32.01;97693.91;5066824;28;20114;-77
2022/10/09 09:49:25;;;;;;;7.00;4.68;;;;;;;31.72;32.63;97689.88;5063921;28;20025;-78
2022/10/09 09:51:51;;;;;;;6.40;3.92;;;;;;;31.30;32.47;97696.09;5053424;28;20166;-79
2022/10/09 09:54:20;;;;;;;6.53;3.80;;;;;;;32.09;31.71;97690.84;5069501;28;20036;-78
2022/10/09 09:56:47;;;;;;;8.45;4.45;;;;;;;32.82;30.80;97696.50;5060519;28;20020;-78
2022/10/09 09:59:41;;;;;;;5.60;4.32;;;;;;;32.93;30.90;97699.34;5066910;28;20028;-77
2022/10/09 10:02:13;;;;;;;8.32;4.40;;;;;;;34.06;30.05;97721.59;5066180;28;20031;-78
2022/10/09 10:04:57;;;;;;;;;;;;;;;33.96;29.33;97708.34;5087581;28;20094;-78
2022/10/09 10:07:33;;;;;;;4.53;3.22;;;;;;;33.47;29.61;97697.56;5070544;28;19969;-78
2022/10/09 10:10:04;;;;;;;6.53;3.33;;;;;;;34.46;28.26;97691.19;5058999;28;20086;-78
2022/10/09 10:12:30;;;;;;;4.82;3.25;;;;;;;33.02;30.21;97683.22;5057040;28;20404;-78
2022/10/09 10:14:55;;;;;;;4.93;3.55;;;;;;;32.56;30.94;97678.25;5063545;28;20078;-78
2022/10/09 10:17:28;;;;;;;13.30;4.60;;;;;;;33.67;29.70;97692.56;5072845;28;20064;-78
2022/10/09 10:19:53;;;;;;;4.13;3.13;;;;;;;34.35;28.82;97694.84;5065819;28;20027;-78
2022/10/09 10:22:25;;;;;;;5.47;3.65;;;;;;;35.24;27.95;97699.91;5077305;28;20452;-78
2022/10/09 10:24:52;;;;;;;4.07;3.22;;;;;;;34.59;28.96;97685.38;5065746;28;20028;-78
2022/10/09 10:27:34;;;;;;;4.85;3.33;;;;;;;35.09;28.69;97699.59;5060234;28;20119;-78
2022/10/09 10:30:02;;;;;;;5.18;3.88;;;;;;;34.87;28.38;97688.28;5068784;28;20055;-79
2022/10/09 10:32:32;;;;;;;4.65;3.33;;;;;;;33.49;29.02;97676.81;5072585;28;20032;-78
2022/10/09 10:35:04;;;;;;;4.65;3.30;;;;;;;32.94;30.44;97678.00;5059492;28;20032;-79
2022/10/09 10:38:08;;;;;;;14.32;3.90;;;;;;;33.25;29.63;97672.28;5064868;28;20475;-78
2022/10/09 10:40:42;;;;;;;9.05;3.90;;;;;;;34.09;29.61;97691.41;5076682;28;20060;-79
2022/10/09 10:43:26;;;;;;;4.18;3.20;;;;;;;33.45;29.36;97664.47;5065015;28;20046;-81
2022/10/09 10:45:59;;;;;;;4.57;3.40;;;;;;;34.41;28.36;97679.97;5071654;28;20028;-78
2022/10/09 10:48:28;;;;;;;7.30;3.08;;;;;;;33.25;29.21;97656.44;5056451;28;20486;-76
2022/10/09 10:50:56;;;;;;;4.85;3.35;;;;;;;34.26;28.60;97673.00;5059203;28;20082;-79
2022/10/09 10:53:30;;;;;;;5.50;3.42;;;;;;;34.35;28.41;97669.84;5074960;28;20948;-78
2022/10/09 10:56:04;;;;;;;5.38;3.30;;;;;;;34.35;28.43;97642.91;5084903;28;20527;-79
2022/10/09 10:58:42;;;;;;;4.03;3.30;;;;;;;35.79;26.90;97673.16;5076777;28;20032;-78
2022/10/09 11:01:34;;;;;;;3.92;2.60;;;;;;;36.31;26.39;97670.09;5078617;28;20497;-78
2022/10/09 11:04:24;;;;;;;9.43;3.20;;;;;;;35.09;27.28;97649.53;5064616;28;20063;-80
2022/10/09 11:07:22;;;;;;;3.05;2.70;;;;;;;36.66;25.86;97673.44;5079150;28;20031;-80
2022/10/09 11:10:25;;;;;;;5.72;3.55;;;;;;;35.76;26.09;97634.66;5057621;28;20035;-78
2022/10/09 11:13:17;;;;;;;4.10;2.97;;;;;;;35.95;26.35;97635.25;5054430;28;20028;-78
2022/10/09 11:16:05;;;;;;;3.72;2.65;;;;;;;36.72;25.78;97643.69;5069896;28;20024;-78
2022/10/09 11:18:44;;;;;;;9.45;3.58;;;;;;;35.51;26.93;97614.69;5073666;28;20106;-79
2022/10/09 11:21:13;;;;;;;5.97;3.22;;;;;;;35.72;26.86;97622.31;5075499;28;20032;-80
2022/10/09 11:23:49;;;;;;;7.68;3.88;;;;;;;36.02;26.10;97624.78;5086495;28;20440;-78
2022/10/09 11:26:38;;;;;;;3.97;2.70;;;;;;;35.51;27.10;97623.03;5056184;28;20028;-78
2022/10/09 11:29:32;;;;;;;5.30;2.85;;;;;;;35.55;26.82;97610.31;5083880;28;20028;-79
2022/10/09 11:32:05;;;;;;;3.63;3.03;;;;;;;36.72;25.50;97619.44;5060634;28;20086;-78
2022/10/09 11:34:40;;;;;;;4.15;2.67;;;;;;;37.14;25.13;97613.22;5073352;28;20105;-78